Time;durP1;ratioP1;P1;durP2;ratioP2;P2;SDS_P1;SDS_P2;PMS_P1;PMS_P2;Temp;Humidity;BMP_temperature;BMP_pressure;BME280_temperature;BME280_humidity;BME280_pressure;Samples;Min_cycle;Max_cycle;Signal;HPM_P1;HPM_P2
2021/09/04 00:01:00;;;;;;;;;;;;;;;;;;5036841;28;20008;-74
2021/09/04 00:03:25;;;;;;;;;;;;;;;;;;5038013;28;19996;-74
2021/09/04 00:05:54;;;;;;;;;;;;;;;;;;5044710;28;20219;-74
2021/09/04 00:08:19;;;;;;;;;;;;;;;;;;5053880;28;19920;-74
2021/09/04 00:10:44;;;;;;;;;;;;;;;;;;5057173;28;19905;-74
2021/09/04 00:13:11;;;;;;;;;;;;;;;;;;5036148;28;19916;-75
2021/09/04 00:15:37;;;;;;;;;;;;;;;;;;5036486;28;19905;-74
2021/09/04 00:18:02;;;;;;;;;;;;;;;;;;5039994;28;19951;-75
2021/09/04 00:20:27;;;;;;;;;;;;;;;;;;5036482;28;19921;-74
2021/09/04 00:22:53;;;;;;;;;;;;;;;;;;5040301;28;19905;-74
2021/09/04 00:25:18;;;;;;;;;;;;;;;;;;5056219;28;19905;-74
2021/09/04 00:27:43;;;;;;;;;;;;;;;;;;5039066;28;19944;-74
2021/09/04 00:30:11;;;;;;;;;;;;;;;;;;5043362;28;19901;-74
2021/09/04 00:32:36;;;;;;;;;;;;;;;;;;5036514;28;19913;-74
2021/09/04 00:35:01;;;;;;;;;;;;;;;;;;5042398;28;19928;-74
2021/09/04 00:37:26;;;;;;;;;;;;;;;;;;5037883;28;19913;-74
2021/09/04 00:39:52;;;;;;;;;;;;;;;;;;5037103;28;19906;-74
2021/09/04 00:42:17;;;;;;;;;;;;;;;;;;5048491;28;19927;-74
2021/09/04 00:44:42;;;;;;;;;;;;;;;;;;5038212;28;19976;-74
2021/09/04 00:47:07;;;;;;;;;;;;;;;;;;5045701;28;19906;-74
2021/09/04 00:49:32;;;;;;;;;;;;;;;;;;5038327;28;19944;-74
2021/09/04 00:51:58;;;;;;;;;;;;;;;;;;5053575;28;19916;-74
2021/09/04 00:54:25;;;;;;;;;;;;;;;;;;5044648;28;19914;-74
2021/09/04 00:56:50;;;;;;;;;;;;;;;;;;5036929;28;19905;-74
2021/09/04 00:59:16;;;;;;;;;;;;;;;;;;5045220;28;19947;-74
2021/09/04 01:01:41;;;;;;;;;;;;;;;;;;5036699;28;19948;-74
2021/09/04 01:04:07;;;;;;;;;;;;;;;;;;5036304;28;20034;-74
2021/09/04 01:06:32;;;;;;;;;;;;;;;;;;5058057;28;19985;-74
2021/09/04 01:08:57;;;;;;;;;;;;;;;;;;5068681;28;19912;-74
2021/09/04 01:11:23;;;;;;;;;;;;;;;;;;5074286;28;19932;-74
2021/09/04 01:13:48;;;;;;;;;;;;;;;;;;5036509;28;19911;-74
2021/09/04 01:16:14;;;;;;;;;;;;;;;;;;5036351;28;19916;-74
2021/09/04 01:18:39;;;;;;;;;;;;;;;;;;5042253;28;19918;-74
2021/09/04 01:21:04;;;;;;;;;;;;;;;;;;5038013;28;19913;-74
2021/09/04 01:23:29;;;;;;;;;;;;;;;;;;5058442;28;19925;-74
2021/09/04 01:25:55;;;;;;;;;;;;;;;;;;5035844;28;19952;-74
2021/09/04 01:28:20;;;;;;;;;;;;;;;;;;5037480;28;19948;-74
2021/09/04 01:30:45;;;;;;;;;;;;;;;;;;5040648;28;19917;-74
2021/09/04 01:33:10;;;;;;;;;;;;;;;;;;5034826;28;20188;-74
2021/09/04 01:35:35;;;;;;;;;;;;;;;;;;5042345;28;19913;-74
2021/09/04 01:38:01;;;;;;;;;;;;;;;;;;5038030;28;19929;-74
2021/09/04 01:40:26;;;;;;;;;;;;;;;;;;5036305;28;19940;-74
2021/09/04 01:42:51;;;;;;;;;;;;;;;;;;5042790;28;19905;-74
2021/09/04 01:45:19;;;;;;;;;;;;;;;;;;5034099;28;19906;-74
2021/09/04 01:47:44;;;;;;;;;;;;;;;;;;5042044;28;20251;-74
2021/09/04 01:50:11;;;;;;;;;;;;;;;;;;5036836;28;19917;-74
2021/09/04 01:52:36;;;;;;;;;;;;;;;;;;5036271;28;19916;-75
2021/09/04 01:55:01;;;;;;;;;;;;;;;;;;5042360;28;19905;-74
2021/09/04 01:57:27;;;;;;;;;;;;;;;;;;5032222;28;19929;-74
2021/09/04 01:59:52;;;;;;;;;;;;;;;;;;5056973;28;19906;-74
2021/09/04 02:02:17;;;;;;;;;;;;;;;;;;5036388;28;20001;-74
2021/09/04 02:04:42;;;;;;;;;;;;;;;;;;5034829;28;19912;-75
2021/09/04 02:07:08;;;;;;;;;;;;;;;;;;5040431;28;19937;-74
2021/09/04 02:09:33;;;;;;;;;;;;;;;;;;5039185;28;19940;-75
2021/09/04 02:11:58;;;;;;;;;;;;;;;;;;5044862;28;19961;-74
2021/09/04 02:14:23;;;;;;;;;;;;;;;;;;5071942;28;19912;-75
2021/09/04 02:16:49;;;;;;;;;;;;;;;;;;5041554;28;19941;-74
2021/09/04 02:19:14;;;;;;;;;;;;;;;;;;5045759;28;19910;-74
2021/09/04 02:21:40;;;;;;;;;;;;;;;;;;5042781;28;19921;-74
2021/09/04 02:24:05;;;;;;;;;;;;;;;;;;5045152;28;19921;-74
2021/09/04 02:26:31;;;;;;;;;;;;;;;;;;5042894;28;19913;-74
2021/09/04 02:28:56;;;;;;;;;;;;;;;;;;5040779;28;19916;-74
2021/09/04 02:31:24;;;;;;;;;;;;;;;;;;5041914;28;19912;-74
2021/09/04 02:33:50;;;;;;;;;;;;;;;;;;5039224;28;19952;-74
2021/09/04 02:36:15;;;;;;;;;;;;;;;;;;5037993;28;20284;-72
2021/09/04 02:38:41;;;;;;;;;;;;;;;;;;5057956;28;19932;-74
2021/09/04 02:41:07;;;;;;;;;;;;;;;;;;5054379;28;19931;-74
2021/09/04 02:43:34;;;;;;;;;;;;;;;;;;5043672;28;19937;-74
2021/09/04 02:46:00;;;;;;;;;;;;;;;;;;5044921;28;19921;-74
2021/09/04 02:48:25;;;;;;;;;;;;;;;;;;5040684;28;19928;-74
2021/09/04 02:50:50;;;;;;;;;;;;;;;;;;5060335;28;19921;-74
2021/09/04 02:53:16;;;;;;;;;;;;;;;;;;5039598;28;19933;-74
2021/09/04 02:55:41;;;;;;;;;;;;;;;;;;5044970;28;19984;-74
2021/09/04 02:58:07;;;;;;;;;;;;;;;;;;5037505;28;19920;-74
2021/09/04 03:00:32;;;;;;;;;;;;;;;;;;5071721;28;19924;-75
2021/09/04 03:02:58;;;;;;;;;;;;;;;;;;5045086;28;19905;-74
2021/09/04 03:05:24;;;;;;;;;;;;;;;;;;5071417;28;19909;-75
2021/09/04 03:07:49;;;;;;;;;;;;;;;;;;5049467;28;19984;-74
2021/09/04 03:10:15;;;;;;;;;;;;;;;;;;5039221;28;19993;-74
2021/09/04 03:12:41;;;;;;;;;;;;;;;;;;5038715;28;19913;-75
2021/09/04 03:15:09;;;;;;;;;;;;;;;;;;5074494;28;19936;-75
2021/09/04 03:17:34;;;;;;;;;;;;;;;;;;5038963;28;19905;-75
2021/09/04 03:20:00;;;;;;;;;;;;;;;;;;5043100;28;19944;-74
2021/09/04 03:22:27;;;;;;;;;;;;;;;;;;5037348;28;19917;-74
2021/09/04 03:24:52;;;;;;;;;;;;;;;;;;5038094;28;19965;-75
2021/09/04 03:27:18;;;;;;;;;;;;;;;;;;5042886;28;19913;-74
2021/09/04 03:29:43;;;;;;;;;;;;;;;;;;5040832;28;19906;-75
2021/09/04 03:32:11;;;;;;;;;;;;;;;;;;5044015;28;20110;-75
2021/09/04 03:34:37;;;;;;;;;;;;;;;;;;5073988;28;20092;-74
2021/09/04 03:37:06;;;;;;;;;;;;;;;;;;5038496;28;20365;-75
2021/09/04 03:39:31;;;;;;;;;;;;;;;;;;5046209;28;19905;-74
2021/09/04 03:41:57;;;;;;;;;;;;;;;;;;5054078;28;19939;-74
2021/09/04 03:44:23;;;;;;;;;;;;;;;;;;5075756;28;19921;-74
2021/09/04 03:46:49;;;;;;;;;;;;;;;;;;5038108;28;19967;-74
2021/09/04 03:49:14;;;;;;;;;;;;;;;;;;5039885;28;20084;-74
2021/09/04 03:51:42;;;;;;;;;;;;;;;;;;5043337;28;19980;-75
2021/09/04 03:54:07;;;;;;;;;;;;;;;;;;5054804;28;20217;-76
2021/09/04 03:56:33;;;;;;;;;;;;;;;;;;5043949;28;19917;-74
2021/09/04 03:58:58;;;;;;;;;;;;;;;;;;5039283;28;19925;-74
2021/09/04 04:01:26;;;;;;;;;;;;;;;;;;5038154;28;19961;-74
2021/09/04 04:03:52;;;;;;;;;;;;;;;;;;5041416;28;19920;-74
2021/09/04 04:06:18;;;;;;;;;;;;;;;;;;5040252;28;20148;-73
2021/09/04 04:08:44;;;;;;;;;;;;;;;;;;5050165;28;19959;-74
2021/09/04 04:11:12;;;;;;;;;;;;;;;;;;5036958;28;19952;-74
2021/09/04 04:13:37;;;;;;;;;;;;;;;;;;5037873;28;19905;-74
2021/09/04 04:16:03;;;;;;;;;;;;;;;;;;5042584;28;19917;-74
2021/09/04 04:18:29;;;;;;;;;;;;;;;;;;5042202;28;19913;-73
2021/09/04 04:20:57;;;;;;;;;;;;;;;;;;5056588;28;19941;-74
2021/09/04 04:23:22;;;;;;;;;;;;;;;;;;5035729;28;19913;-74
2021/09/04 04:25:50;;;;;;;;;;;;;;;;;;5042228;28;19941;-74
2021/09/04 04:28:15;;;;;;;;;;;;;;;;;;5043936;28;19905;-73
2021/09/04 04:30:41;;;;;;;;;;;;;;;;;;5070834;28;20169;-74
2021/09/04 04:33:07;;;;;;;;;;;;;;;;;;5042688;28;19919;-73
2021/09/04 04:35:32;;;;;;;;;;;;;;;;;;5037377;28;19915;-74
2021/09/04 04:37:58;;;;;;;;;;;;;;;;;;5038754;28;19905;-74
2021/09/04 04:40:23;;;;;;;;;;;;;;;;;;5040197;28;19920;-74
2021/09/04 04:42:49;;;;;;;;;;;;;;;;;;5051964;28;19905;-73
2021/09/04 04:45:15;;;;;;;;;;;;;;;;;;5043921;28;19912;-74
2021/09/04 04:47:40;;;;;;;;;;;;;;;;;;5037946;28;19940;-73
2021/09/04 04:50:05;;;;;;;;;;;;;;;;;;5067319;28;19925;-74
2021/09/04 04:52:31;;;;;;;;;;;;;;;;;;5043652;28;20202;-73
2021/09/04 04:54:57;;;;;;;;;;;;;;;;;;5045104;28;19968;-74
2021/09/04 04:57:25;;;;;;;;;;;;;;;;;;5040515;28;19909;-74
2021/09/04 04:59:50;;;;;;;;;;;;;;;;;;5038848;28;19924;-73
2021/09/04 05:02:17;;;;;;;;;;;;;;;;;;5066536;28;19913;-74
2021/09/04 05:04:44;;;;;;;;;;;;;;;;;;5042641;28;19906;-74
2021/09/04 05:07:10;;;;;;;;;;;;;;;;;;5031574;28;19902;-74
2021/09/04 05:09:36;;;;;;;;;;;;;;;;;;5034348;28;19921;-75
2021/09/04 05:12:02;;;;;;;;;;;;;;;;;;5041748;28;19909;-74
2021/09/04 05:14:29;;;;;;;;;;;;;;;;;;5070738;28;19955;-74
2021/09/04 05:16:55;;;;;;;;;;;;;;;;;;5071713;28;20281;-74
2021/09/04 05:19:20;;;;;;;;;;;;;;;;;;5037558;28;19913;-75
2021/09/04 05:21:47;;;;;;;;;;;;;;;;;;5036613;28;19913;-75
2021/09/04 05:24:13;;;;;;;;;;;;;;;;;;5043847;28;19913;-74
2021/09/04 05:26:39;;;;;;;;;;;;;;;;;;5069030;28;19924;-74
2021/09/04 05:29:04;;;;;;;;;;;;;;;;;;5072737;28;19901;-74
2021/09/04 05:31:29;;;;;;;;;;;;;;;;;;5067176;28;19932;-74
2021/09/04 05:33:54;;;;;;;;;;;;;;;;;;5036632;28;20355;-74
2021/09/04 05:36:19;;;;;;;;;;;;;;;;;;5072362;28;19937;-74
2021/09/04 05:38:45;;;;;;;;;;;;;;;;;;5034716;28;19913;-74
2021/09/04 05:41:10;;;;;;;;;;;;;;;;;;5038483;28;19921;-74
2021/09/04 05:43:35;;;;;;;;;;;;;;;;;;5034615;28;19906;-75
2021/09/04 05:46:00;;;;;;;;;;;;;;;;;;5038686;28;19968;-73
2021/09/04 05:48:26;;;;;;;;;;;;;;;;;;5038256;28;19937;-74
2021/09/04 05:50:51;;;;;;;;;;;;;;;;;;5034506;28;19921;-74
2021/09/04 05:53:16;;;;;;;;;;;;;;;;;;5040342;28;19905;-73
2021/09/04 05:55:43;;;;;;;;;;;;;;;;;;5036918;28;19977;-74
2021/09/04 05:58:09;;;;;;;;;;;;;;;;;;5033709;28;19912;-74
2021/09/04 06:00:34;;;;;;;;;;;;;;;;;;5043319;28;19905;-74
2021/09/04 06:02:59;;;;;;;;;;;;;;;;;;5068854;28;19905;-74
2021/09/04 06:05:24;;;;;;;;;;;;;;;;;;5045463;28;20109;-74
2021/09/04 06:07:49;;;;;;;;;;;;;;;;;;5066584;28;19928;-73
2021/09/04 06:10:15;;;;;;;;;;;;;;;;;;5039521;28;19921;-73
2021/09/04 06:12:40;;;;;;;;;;;;;;;;;;5040893;28;19971;-74
2021/09/04 06:15:05;;;;;;;;;;;;;;;;;;5035874;28;19932;-74
2021/09/04 06:17:30;;;;;;;;;;;;;;;;;;5068844;28;19996;-73
2021/09/04 06:19:56;;;;;;;;;;;;;;;;;;5031249;28;19937;-74
2021/09/04 06:22:21;;;;;;;;;;;;;;;;;;5071719;28;19940;-74
2021/09/04 06:24:46;;;;;;;;;;;;;;;;;;5042585;28;19906;-74
2021/09/04 06:27:12;;;;;;;;;;;;;;;;;;5039109;28;19908;-74
2021/09/04 06:29:37;;;;;;;;;;;;;;;;;;5049051;28;19916;-74
2021/09/04 06:32:05;;;;;;;;;;;;;;;;;;5041598;28;19906;-74
2021/09/04 06:34:30;;;;;;;;;;;;;;;;;;5036755;28;19913;-74
2021/09/04 06:36:55;;;;;;;;;;;;;;;;;;5070726;28;19913;-74
2021/09/04 06:39:20;;;;;;;;;;;;;;;;;;5039116;28;19928;-75
2021/09/04 06:41:45;;;;;;;;;;;;;;;;;;5073356;28;19921;-74
2021/09/04 06:44:13;;;;;;;;;;;;;;;;;;5035465;28;19980;-74
2021/09/04 06:46:38;;;;;;;;;;;;;;;;;;5035851;28;19905;-74
2021/09/04 06:49:03;;;;;;;;;;;;;;;;;;5041036;28;19948;-74
2021/09/04 06:51:29;;;;;;;;;;;;;;;;;;5037722;28;19993;-74
2021/09/04 06:53:54;;;;;;;;;;;;;;;;;;5043828;28;20093;-74
2021/09/04 06:56:19;;;;;;;;;;;;;;;;;;5073001;28;19913;-74
2021/09/04 06:58:45;;;;;;;;;;;;;;;;;;5041238;28;19901;-74
2021/09/04 07:01:10;;;;;;;;;;;;;;;;;;5043257;28;19940;-74
2021/09/04 07:03:35;;;;;;;;;;;;;;;;;;5041112;28;19905;-74
2021/09/04 07:06:00;;;;;;;;;;;;;;;;;;5044885;28;19913;-74
2021/09/04 07:08:26;;;;;;;;;;;;;;;;;;5041943;28;19905;-75
2021/09/04 07:10:51;;;;;;;;;;;;;;;;;;5079757;28;19943;-74
2021/09/04 07:13:16;;;;;;;;;;;;;;;;;;5039741;28;19980;-74
2021/09/04 07:15:43;;;;;;;;;;;;;;;;;;5040582;28;19932;-75
2021/09/04 07:18:09;;;;;;;;;;;;;;;;;;5039837;28;19914;-75
2021/09/04 07:20:36;;;;;;;;;;;;;;;;;;5038130;28;19905;-75
2021/09/04 07:23:02;;;;;;;;;;;;;;;;;;5040673;28;19924;-74
2021/09/04 07:25:27;;;;;;;;;;;;;;;;;;5036591;28;19921;-74
2021/09/04 07:27:52;;;;;;;;;;;;;;;;;;5046343;28;19973;-75
2021/09/04 07:30:17;;;;;;;;;;;;;;;;;;5041943;28;19906;-75
2021/09/04 07:32:43;;;;;;;;;;;;;;;;;;5039328;28;19932;-75
2021/09/04 07:35:11;;;;;;;;;;;;;;;;;;5044620;28;19961;-75
2021/09/04 07:37:36;;;;;;;;;;;;;;;;;;5035687;28;19939;-75
2021/09/04 07:40:01;;;;;;;;;;;;;;;;;;5040120;28;19992;-75
2021/09/04 07:42:26;;;;;;;;;;;;;;;;;;5042635;28;19933;-76
2021/09/04 07:44:52;;;;;;;;;;;;;;;;;;5042048;28;19925;-76
2021/09/04 07:47:17;;;;;;;;;;;;;;;;;;5044522;28;19933;-76
2021/09/04 07:49:42;;;;;;;;;;;;;;;;;;5044062;28;19925;-78
2021/09/04 07:52:07;;;;;;;;;;;;;;;;;;5043297;28;19905;-77
2021/09/04 07:54:33;;;;;;;;;;;;;;;;;;5045077;28;19905;-76
2021/09/04 07:56:58;;;;;;;;;;;;;;;;;;5044310;28;19918;-78
2021/09/04 07:59:23;;;;;;;;;;;;;;;;;;5059809;28;19957;-77
2021/09/04 08:01:48;;;;;;;;;;;;;;;;;;5042457;28;19909;-77
2021/09/04 08:04:14;;;;;;;;;;;;;;;;;;5057605;28;19915;-77
2021/09/04 08:06:39;;;;;;;;;;;;;;;;;;5044494;28;19941;-77
2021/09/04 08:09:04;;;;;;;;;;;;;;;;;;5075500;28;19918;-75
2021/09/04 08:11:30;;;;;;;;;;;;;;;;;;5039637;28;20294;-77
2021/09/04 08:13:55;;;;;;;;;;;;;;;;;;5043648;28;19910;-79
2021/09/04 08:16:20;;;;;;;;;;;;;;;;;;5044956;28;19936;-77
2021/09/04 08:18:45;;;;;;;;;;;;;;;;;;5042470;28;19972;-76
2021/09/04 08:21:11;;;;;;;;;;;;;;;;;;5042036;28;19933;-77
2021/09/04 08:23:38;;;;;;;;;;;;;;;;;;5042800;28;19905;-78
2021/09/04 08:26:03;;;;;;;;;;;;;;;;;;5035436;28;19989;-77
2021/09/04 08:28:29;;;;;;;;;;;;;;;;;;5056675;28;19928;-77
2021/09/04 08:30:54;;;;;;;;;;;;;;;;;;5074611;28;19928;-76
2021/09/04 08:33:19;;;;;;;;;;;;;;;;;;5043285;28;19905;-76
2021/09/04 08:35:44;;;;;;;;;;;;;;;;;;5078470;28;19969;-76
2021/09/04 08:38:13;;;;;;;;;;;;;;;;;;5072051;28;19906;-76
2021/09/04 08:40:50;;;;;;;;;;;;;;;;;;5073907;28;19924;-76
2021/09/04 08:43:15;;;;;;;;;;;;;;;;;;5043768;28;19944;-76
2021/09/04 08:45:41;;;;;;;;;;;;;;;;;;5059958;28;19925;-77
2021/09/04 08:48:07;;;;;;;;;;;;;;;;;;5049419;28;19905;-77
2021/09/04 08:50:32;;;;;;;;;;;;;;;;;;5046773;28;19932;-77
2021/09/04 08:52:57;;;;;;;;;;;;;;;;;;5046445;28;20005;-77
2021/09/04 08:55:22;;;;;;;;;;;;;;;;;;5044990;28;19905;-74
2021/09/04 08:57:48;;;;;;;;;;;;;;;;;;5042710;28;19913;-75
2021/09/04 09:00:14;;;;;;;;;;;;;;;;;;5046596;28;19928;-77
2021/09/04 09:02:40;;;;;;;;;;;;;;;;;;5039311;28;19913;-78
2021/09/04 09:05:07;;;;;;;;;;;;;;;;;;5042952;28;19905;-78
2021/09/04 09:07:33;;;;;;;;;;;;;;;;;;5063341;28;19912;-78
2021/09/04 09:09:58;;;;;;;;;;;;;;;;;;5039174;28;19906;-74
2021/09/04 09:12:23;;;;;;;;;;;;;;;;;;5060431;28;20273;-76
2021/09/04 09:14:48;;;;;;;;;;;;;;;;;;5042811;28;19916;-77
2021/09/04 09:17:13;;;;;;;;;;;;;;;;;;5044445;28;19941;-78
2021/09/04 09:19:39;;;;;;;;;;;;;;;;;;5044706;28;19909;-78
2021/09/04 09:22:04;;;;;;;;;;;;;;;;;;5044545;28;19913;-78
2021/09/04 09:24:29;;;;;;;;;;;;;;;;;;5048490;28;19935;-78
2021/09/04 09:26:54;;;;;;;;;;;;;;;;;;5040971;28;19906;-77
2021/09/04 09:29:20;;;;;;;;;;;;;;;;;;5039447;28;19921;-78
2021/09/04 09:31:45;;;;;;;;;;;;;;;;;;5045225;28;19905;-78
2021/09/04 09:34:10;;;;;;;;;;;;;;;;;;5043138;28;19921;-74
2021/09/04 09:36:37;;;;;;;;;;;;;;;;;;5048573;28;19913;-76
2021/09/04 09:39:03;;;;;;;;;;;;;;;;;;5039165;28;19902;-77
2021/09/04 09:41:28;;;;;;;;;;;;;;;;;;5043479;28;19928;-77
2021/09/04 09:43:53;;;;;;;;;;;;;;;;;;5042896;28;20074;-78
2021/09/04 09:46:18;;;;;;;;;;;;;;;;;;5042651;28;19997;-78
2021/09/04 09:48:44;;;;;;;;;;;;;;;;;;5044428;28;19925;-77
2021/09/04 09:51:10;;;;;;;;;;;;;;;;;;5044066;28;19929;-77
2021/09/04 09:53:35;;;;;;;;;;;;;;;;;;5043723;28;20266;-77
2021/09/04 09:56:00;;;;;;;;;;;;;;;;;;5049442;28;19981;-77
2021/09/04 09:58:26;;;;;;;;;;;;;;;;;;5042727;28;19914;-76
2021/09/04 10:00:51;;;;;;;;;;;;;;;;;;5055743;28;19985;-76
2021/09/04 10:03:16;;;;;;;;;;;;;;;;;;5041314;28;19939;-77
2021/09/04 10:05:42;;;;;;;;;;;;;;;;;;5041462;28;19906;-78
2021/09/04 10:08:07;;;;;;;;;;;;;;;;;;5041853;28;19912;-76
2021/09/04 10:10:32;;;;;;;;;;;;;;;;;;5043051;28;20254;-79
2021/09/04 10:12:58;;;;;;;;;;;;;;;;;;5043672;28;19913;-77
2021/09/04 10:15:23;;;;;;;;;;;;;;;;;;5043796;28;19984;-76
2021/09/04 10:17:48;;;;;;;;;;;;;;;;;;5041809;28;19936;-77
2021/09/04 10:20:13;;;;;;;;;;;;;;;;;;5040863;28;19913;-76
2021/09/04 10:22:41;;;;;;;;;;;;;;;;;;5041471;28;19913;-77
2021/09/04 10:25:06;;;;;;;;;;;;;;;;;;5039822;28;19917;-78
2021/09/04 10:27:31;;;;;;;;;;;;;;;;;;5054229;28;19921;-77
2021/09/04 10:29:57;;;;;;;;;;;;;;;;;;5049616;28;19911;-78
2021/09/04 10:32:22;;;;;;;;;;;;;;;;;;5061665;28;19947;-79
2021/09/04 10:34:47;;;;;;;;;;;;;;;;;;5060979;28;19940;-74
2021/09/04 10:37:13;;;;;;;;;;;;;;;;;;5044166;28;19941;-77
2021/09/04 10:39:40;;;;;;;;;;;;;;;;;;5047666;28;19973;-77
2021/09/04 10:42:06;;;;;;;;;;;;;;;;;;5045426;28;19916;-78
2021/09/04 10:44:31;;;;;;;;;;;;;;;;;;5043981;28;19921;-78
2021/09/04 10:46:56;;;;;;;;;;;;;;;;;;5041828;28;19906;-78
2021/09/04 10:49:21;;;;;;;;;;;;;;;;;;5046884;28;19917;-78
2021/09/04 10:51:47;;;;;;;;;;;;;;;;;;5044287;28;19960;-75
2021/09/04 10:54:14;;;;;;;;;;;;;;;;;;5046627;28;19905;-78
2021/09/04 10:56:40;;;;;;;;;;;;;;;;;;5044237;28;19906;-78
2021/09/04 10:59:07;;;;;;;;;;;;;;;;;;5050219;28;20205;-78
2021/09/04 11:01:32;;;;;;;;;;;;;;;;;;5044317;28;19921;-78
2021/09/04 11:03:57;;;;;;;;;;;;;;;;;;5044702;28;19924;-74
2021/09/04 11:06:22;;;;;;;;;;;;;;;;;;5045172;28;19956;-75
2021/09/04 11:08:48;;;;;;;;;;;;;;;;;;5044250;28;19913;-76
2021/09/04 11:11:15;;;;;;;;;;;;;;;;;;5033827;28;19927;-76
2021/09/04 11:13:40;;;;;;;;;;;;;;;;;;5045966;28;19996;-77
2021/09/04 11:16:05;;;;;;;;;;;;;;;;;;5045131;28;19929;-75
2021/09/04 11:18:30;;;;;;;;;;;;;;;;;;5037253;28;19905;-75
2021/09/04 11:20:56;;;;;;;;;;;;;;;;;;5041746;28;19972;-76
2021/09/04 11:23:21;;;;;;;;;;;;;;;;;;5039034;28;19917;-74
2021/09/04 11:25:46;;;;;;;;;;;;;;;;;;5044419;28;20032;-76
2021/09/04 11:28:11;;;;;;;;;;;;;;;;;;5037209;28;19948;-75
2021/09/04 11:30:36;;;;;;;;;;;;;;;;;;5039528;28;19905;-76
2021/09/04 11:33:02;;;;;;;;;;;;;;;;;;5045797;28;19913;-76
2021/09/04 11:35:27;;;;;;;;;;;;;;;;;;5041056;28;20150;-76
2021/09/04 11:37:52;;;;;;;;;;;;;;;;;;5043435;28;19943;-77
2021/09/04 11:40:17;;;;;;;;;;;;;;;;;;5031274;28;19968;-77
2021/09/04 11:42:43;;;;;;;;;;;;;;;;;;5036047;28;19944;-77
2021/09/04 11:45:11;;;;;;;;;;;;;;;;;;5044333;28;20124;-75
2021/09/04 11:47:36;;;;;;;;;;;;;;;;;;5039039;28;19913;-76
2021/09/04 11:50:01;;;;;;;;;;;;;;;;;;5041741;28;20024;-76
2021/09/04 11:52:28;;;;;;;;;;;;;;;;;;5040875;28;19905;-76
2021/09/04 11:54:53;;;;;;;;;;;;;;;;;;5039584;28;19903;-77
2021/09/04 11:57:18;;;;;;;;;;;;;;;;;;5042104;28;19912;-77
2021/09/04 11:59:44;;;;;;;;;;;;;;;;;;5039741;28;19916;-76
2021/09/04 12:02:09;;;;;;;;;;;;;;;;;;5075014;28;19948;-75
2021/09/04 12:04:34;;;;;;;;;;;;;;;;;;5040190;28;21017;-75
2021/09/04 12:06:59;;;;;;;;;;;;;;;;;;5037397;28;19929;-75
2021/09/04 12:09:24;;;;;;;;;;;;;;;;;;5044322;28;19920;-76
2021/09/04 12:11:50;;;;;;;;;;;;;;;;;;5037732;28;19905;-77
2021/09/04 12:14:15;;;;;;;;;;;;;;;;;;5075540;28;19905;-77
2021/09/04 12:16:40;;;;;;;;;;;;;;;;;;5036140;28;19933;-76
2021/09/04 12:19:05;;;;;;;;;;;;;;;;;;5070264;28;19920;-77
2021/09/04 12:21:36;;;;;;;;;;;;;;;;;;5043330;28;20143;-76
2021/09/04 12:24:02;;;;;;;;;;;;;;;;;;5040727;28;19927;-77
2021/09/04 12:26:27;;;;;;;;;;;;;;;;;;5046323;28;19929;-76
2021/09/04 12:28:53;;;;;;;;;;;;;;;;;;5039234;28;19967;-76
2021/09/04 12:31:18;;;;;;;;;;;;;;;;;;5037733;28;19905;-76
2021/09/04 12:33:43;;;;;;;;;;;;;;;;;;5043210;28;19902;-77
2021/09/04 12:36:08;;;;;;;;;;;;;;;;;;5039817;28;20257;-76
2021/09/04 12:38:33;;;;;;;;;;;;;;;;;;5044716;28;19917;-75
2021/09/04 12:40:59;;;;;;;;;;;;;;;;;;5038800;28;19914;-75
2021/09/04 12:43:24;;;;;;;;;;;;;;;;;;5040378;28;19944;-75
2021/09/04 12:45:49;;;;;;;;;;;;;;;;;;5050008;28;19905;-75
2021/09/04 12:48:14;;;;;;;;;;;;;;;;;;5036158;28;19916;-76
2021/09/04 12:50:40;;;;;;;;;;;;;;;;;;5042424;28;19912;-77
2021/09/04 12:53:05;;;;;;;;;;;;;;;;;;5034285;28;19928;-76
2021/09/04 12:55:30;;;;;;;;;;;;;;;;;;5053315;28;19917;-76
2021/09/04 12:57:55;;;;;;;;;;;;;;;;;;5043865;28;19980;-77
2021/09/04 13:00:20;;;;;;;;;;;;;;;;;;5037482;28;20201;-78
2021/09/04 13:02:46;;;;;;;;;;;;;;;;;;5040690;28;19913;-70
2021/09/04 13:05:11;;;;;;;;;;;;;;;;;;5038846;28;20075;-76
2021/09/04 13:07:36;;;;;;;;;;;;;;;;;;5037202;28;19905;-75
2021/09/04 13:10:01;;;;;;;;;;;;;;;;;;5041680;28;19945;-75
2021/09/04 13:12:26;;;;;;;;;;;;;;;;;;5036336;28;19913;-75
2021/09/04 13:14:52;;;;;;;;;;;;;;;;;;5073659;28;19945;-75
2021/09/04 13:17:17;;;;;;;;;;;;;;;;;;5037046;28;19917;-76
2021/09/04 13:19:45;;;;;;;;;;;;;;;;;;5038264;28;19913;-75
2021/09/04 13:22:12;;;;;;;;;;;;;;;;;;5072428;28;19911;-73
2021/09/04 13:24:38;;;;;;;;;;;;;;;;;;5037376;28;19913;-73
2021/09/04 13:27:03;;;;;;;;;;;;;;;;;;5042452;28;19906;-74
2021/09/04 13:29:28;;;;;;;;;;;;;;;;;;5032617;28;19917;-75
2021/09/04 13:31:54;;;;;;;;;;;;;;;;;;5040919;28;19921;-75
2021/09/04 13:34:19;;;;;;;;;;;;;;;;;;5043996;28;19938;-74
2021/09/04 13:36:53;;;;;;;;;;;;;;;;;;5039335;28;19913;-76
2021/09/04 13:39:19;;;;;;;;;;;;;;;;;;5039689;28;19913;-75
2021/09/04 13:41:44;;;;;;;;;;;;;;;;;;5036162;28;19931;-74
2021/09/04 13:44:09;;;;;;;;;;;;;;;;;;5037125;28;20008;-74
2021/09/04 13:46:34;;;;;;;;;;;;;;;;;;5056037;28;19916;-74
2021/09/04 13:49:00;;;;;;;;;;;;;;;;;;5035255;28;19967;-72
2021/09/04 13:51:25;;;;;;;;;;;;;;;;;;5041890;28;19924;-75
2021/09/04 13:53:53;;;;;;;;;;;;;;;;;;5035020;28;19913;-74
2021/09/04 13:56:20;;;;;;;;;;;;;;;;;;5035804;28;20226;-71
2021/09/04 13:58:45;;;;;;;;;;;;;;;;;;5056172;28;19905;-71
2021/09/04 14:01:10;;;;;;;;;;;;;;;;;;5033651;28;19980;-72
2021/09/04 14:03:36;;;;;;;;;;;;;;;;;;5075379;28;19921;-71
2021/09/04 14:06:01;;;;;;;;;;;;;;;;;;5040830;28;19912;-74
2021/09/04 14:08:26;;;;;;;;;;;;;;;;;;5042549;28;19914;-75
2021/09/04 14:10:51;;;;;;;;;;;;;;;;;;5044527;28;19968;-74
2021/09/04 14:13:17;;;;;;;;;;;;;;;;;;5041569;28;19913;-74
2021/09/04 14:15:42;;;;;;;;;;;;;;;;;;5046387;28;19913;-70
2021/09/04 14:18:07;;;;;;;;;;;;;;;;;;5038803;28;19948;-72
2021/09/04 14:20:35;;;;;;;;;;;;;;;;;;5038856;28;19905;-71
2021/09/04 14:23:00;;;;;;;;;;;;;;;;;;5043835;28;19996;-71
2021/09/04 14:25:26;;;;;;;;;;;;;;;;;;5037715;28;19917;-72
2021/09/04 14:27:54;;;;;;;;;;;;;;;;;;5042895;28;19906;-72
2021/09/04 14:30:19;;;;;;;;;;;;;;;;;;5039258;28;19931;-71
2021/09/04 14:32:45;;;;;;;;;;;;;;;;;;5037883;28;19968;-72
2021/09/04 14:35:10;;;;;;;;;;;;;;;;;;5044678;28;19929;-72
2021/09/04 14:37:35;;;;;;;;;;;;;;;;;;5038255;28;19984;-71
2021/09/04 14:40:00;;;;;;;;;;;;;;;;;;5040750;28;19905;-71
2021/09/04 14:42:25;;;;;;;;;;;;;;;;;;5039708;28;19912;-72
2021/09/04 14:44:53;;;;;;;;;;;;;;;;;;5038563;28;19928;-71
2021/09/04 14:47:20;;;;;;;;;;;;;;;;;;5043348;28;19941;-71
2021/09/04 14:49:45;;;;;;;;;;;;;;;;;;5039741;28;19917;-72
2021/09/04 14:52:11;;;;;;;;;;;;;;;;;;5043765;28;20178;-72
2021/09/04 14:54:36;;;;;;;;;;;;;;;;;;5051312;28;20214;-73
2021/09/04 14:57:01;;;;;;;;;;;;;;;;;;5026655;28;19971;-76
2021/09/04 14:59:26;;;;;;;;;;;;;;;;;;5040503;28;19946;-76
2021/09/04 15:01:51;;;;;;;;;;;;;;;;;;5070093;28;19917;-73
2021/09/04 15:04:17;;;;;;;;;;;;;;;;;;5045041;28;19921;-73
2021/09/04 15:06:42;;;;;;;;;;;;;;;;;;5037591;28;19984;-75
2021/09/04 15:09:07;;;;;;;;;;;;;;;;;;5045095;28;19909;-75
2021/09/04 15:11:35;;;;;;;;;;;;;;;;;;5076161;28;19948;-76
2021/09/04 15:14:00;;;;;;;;;;;;;;;;;;5038950;28;19901;-76
2021/09/04 15:16:26;;;;;;;;;;;;;;;;;;5041211;28;19913;-76
2021/09/04 15:18:51;;;;;;;;;;;;;;;;;;5066649;28;19937;-73
2021/09/04 15:21:16;;;;;;;;;;;;;;;;;;5038998;28;19954;-76
2021/09/04 15:23:41;;;;;;;;;;;;;;;;;;5059224;28;19913;-76
2021/09/04 15:26:07;;;;;;;;;;;;;;;;;;5039082;28;19905;-76
2021/09/04 15:28:32;;;;;;;;;;;;;;;;;;5042885;28;20032;-74
2021/09/04 15:30:57;;;;;;;;;;;;;;;;;;5040839;28;19921;-76
2021/09/04 15:33:22;;;;;;;;;;;;;;;;;;5036999;28;19917;-75
2021/09/04 15:35:48;;;;;;;;;;;;;;;;;;5043836;28;19941;-72
2021/09/04 15:38:13;;;;;;;;;;;;;;;;;;5036334;28;19972;-71
2021/09/04 15:40:38;;;;;;;;;;;;;;;;;;5039925;28;19906;-71
2021/09/04 15:43:03;;;;;;;;;;;;;;;;;;5036679;28;19916;-71
2021/09/04 15:45:29;;;;;;;;;;;;;;;;;;5066814;28;19921;-71
2021/09/04 15:47:54;;;;;;;;;;;;;;;;;;5042399;28;19913;-71
2021/09/04 15:50:19;;;;;;;;;;;;;;;;;;5037317;28;19917;-71
2021/09/04 15:52:44;;;;;;;;;;;;;;;;;;5042342;28;19936;-70
2021/09/04 15:55:10;;;;;;;;;;;;;;;;;;5040169;28;19913;-72
2021/09/04 15:57:35;;;;;;;;;;;;;;;;;;5067561;28;19901;-73
2021/09/04 16:00:01;;;;;;;;;;;;;;;;;;5057607;28;19913;-72
2021/09/04 16:02:26;;;;;;;;;;;;;;;;;;5041003;28;19914;-73
2021/09/04 16:04:51;;;;;;;;;;;;;;;;;;5039055;28;19965;-73
2021/09/04 16:07:16;;;;;;;;;;;;;;;;;;5058732;28;19912;-72
2021/09/04 16:09:44;;;;;;;;;;;;;;;;;;5038109;28;19902;-72
2021/09/04 16:12:09;;;;;;;;;;;;;;;;;;5044790;28;19976;-73
2021/09/04 16:14:34;;;;;;;;;;;;;;;;;;5045810;28;19929;-73
2021/09/04 16:17:00;;;;;;;;;;;;;;;;;;5039991;28;19916;-73
2021/09/04 16:19:25;;;;;;;;;;;;;;;;;;5042452;28;19905;-73
2021/09/04 16:21:50;;;;;;;;;;;;;;;;;;5040923;28;19902;-73
2021/09/04 16:24:15;;;;;;;;;;;;;;;;;;5043220;28;19928;-73
2021/09/04 16:26:41;;;;;;;;;;;;;;;;;;5039310;28;19917;-72
2021/09/04 16:29:06;;;;;;;;;;;;;;;;;;5045740;28;19905;-73
2021/09/04 16:31:31;;;;;;;;;;;;;;;;;;5045827;28;19914;-73
2021/09/04 16:33:56;;;;;;;;;;;;;;;;;;5041660;28;19916;-73